Time;durP1;ratioP1;P1;durP2;ratioP2;P2;SDS_P1;SDS_P2;PMS_P1;PMS_P2;Temp;Humidity;BMP_temperature;BMP_pressure;BME280_temperature;BME280_humidity;BME280_pressure;Samples;Min_cycle;Max_cycle;Signal;HPM_P1;HPM_P2
2023/12/11 00:01:20;;;;;;;9.30;8.80;;;;;;;;;;4941495;29;20046;-75
2023/12/11 00:03:45;;;;;;;9.63;8.93;;;;;;;;;;4941381;28;20039;-74
2023/12/11 00:06:11;;;;;;;9.30;8.75;;;;;;;;;;4942796;29;20512;-74
2023/12/11 00:08:37;;;;;;;9.65;8.95;;;;;;;;;;4942108;29;20042;-75
2023/12/11 00:11:02;;;;;;;8.98;8.38;;;;;;;;;;4925574;29;20039;-74
2023/12/11 00:13:28;;;;;;;9.18;8.57;;;;;;;;;;4942125;29;20047;-74
2023/12/11 00:15:54;;;;;;;9.77;9.27;;;;;;;;;;4924867;29;20136;-75
2023/12/11 00:18:19;;;;;;;9.30;8.80;;;;;;;;;;4941309;29;20118;-74
2023/12/11 00:20:45;;;;;;;9.43;8.82;;;;;;;;;;4925028;29;20735;-74
2023/12/11 00:23:11;;;;;;;9.10;8.60;;;;;;;;;;4938966;28;20039;-75
2023/12/11 00:25:37;;;;;;;9.43;8.93;;;;;;;;;;4941652;29;20046;-74
2023/12/11 00:28:03;;;;;;;9.48;8.88;;;;;;;;;;4941947;29;20046;-75
2023/12/11 00:30:29;;;;;;;9.35;8.75;;;;;;;;;;4942386;29;20038;-74
2023/12/11 00:32:54;;;;;;;9.00;8.40;;;;;;;;;;4941120;28;20035;-74
2023/12/11 00:35:20;;;;;;;9.30;8.70;;;;;;;;;;4940648;29;20713;-75
2023/12/11 00:37:46;;;;;;;9.18;8.68;;;;;;;;;;4942393;29;20067;-75
2023/12/11 00:40:12;;;;;;;9.05;8.50;;;;;;;;;;4942039;28;20031;-75
2023/12/11 00:42:37;;;;;;;9.55;8.95;;;;;;;;;;4925898;28;20047;-71
2023/12/11 00:45:05;;;;;;;9.57;8.93;;;;;;;;;;4942023;29;20511;-75
2023/12/11 00:47:31;;;;;;;9.43;8.82;;;;;;;;;;4941720;28;20473;-75
2023/12/11 00:49:57;;;;;;;9.23;8.55;;;;;;;;;;4926306;29;20046;-75
2023/12/11 00:52:22;;;;;;;10.30;9.60;;;;;;;;;;4950177;28;20446;-74
2023/12/11 00:54:48;;;;;;;9.48;8.88;;;;;;;;;;4941961;29;20027;-73
2023/12/11 00:57:13;;;;;;;8.75;8.25;;;;;;;;;;4941725;29;20532;-74
2023/12/11 00:59:39;;;;;;;9.63;8.82;;;;;;;;;;4942672;29;20042;-74
2023/12/11 01:02:04;;;;;;;9.05;8.55;;;;;;;;;;4937189;28;20433;-74
2023/12/11 01:04:30;;;;;;;9.63;8.93;;;;;;;;;;4938595;28;20082;-74
2023/12/11 01:06:56;;;;;;;8.77;8.27;;;;;;;;;;4941026;29;20414;-72
2023/12/11 01:09:21;;;;;;;9.55;8.75;;;;;;;;;;4941621;29;20035;-74
2023/12/11 01:11:47;;;;;;;9.10;8.60;;;;;;;;;;4939523;29;20130;-73
2023/12/11 01:14:13;;;;;;;9.55;8.95;;;;;;;;;;4940875;28;20053;-71
2023/12/11 01:16:38;;;;;;;9.45;8.80;;;;;;;;;;4940573;29;20564;-74
2023/12/11 01:19:04;;;;;;;9.38;8.80;;;;;;;;;;4937586;28;20031;-75
2023/12/11 01:21:29;;;;;;;9.60;9.00;;;;;;;;;;4941389;29;20197;-75
2023/12/11 01:23:55;;;;;;;9.48;8.88;;;;;;;;;;4936671;28;20031;-75
2023/12/11 01:26:21;;;;;;;9.57;8.90;;;;;;;;;;4940022;28;20031;-75
2023/12/11 01:28:46;;;;;;;9.95;9.18;;;;;;;;;;4940454;29;20035;-75
2023/12/11 01:31:12;;;;;;;9.35;8.63;;;;;;;;;;4942194;29;20102;-75
2023/12/11 01:33:37;;;;;;;9.50;8.73;;;;;;;;;;4940794;28;20031;-74
2023/12/11 01:36:03;;;;;;;9.20;8.50;;;;;;;;;;4938144;29;20081;-74
2023/12/11 01:38:29;;;;;;;8.93;8.43;;;;;;;;;;4941363;29;20035;-75
2023/12/11 01:40:55;;;;;;;9.15;8.60;;;;;;;;;;4939523;28;20035;-74
2023/12/11 01:43:20;;;;;;;9.18;8.40;;;;;;;;;;4940576;28;20042;-74
2023/12/11 01:46:00;;;;;;;10.15;9.45;;;;;;;;;;4938412;28;20038;-74
2023/12/11 01:48:27;;;;;;;9.10;8.60;;;;;;;;;;4939607;29;20118;-74
2023/12/11 01:50:53;;;;;;;9.52;8.93;;;;;;;;;;4940804;29;20027;-75
2023/12/11 01:53:19;;;;;;;9.90;9.32;;;;;;;;;;4938053;28;20035;-75
2023/12/11 01:55:46;;;;;;;9.25;8.75;;;;;;;;;;4939206;28;20034;-76
2023/12/11 01:58:12;;;;;;;9.43;8.77;;;;;;;;;;4937596;29;20665;-76
2023/12/11 02:00:38;;;;;;;9.00;8.40;;;;;;;;;;4924452;29;20035;-74
2023/12/11 02:03:04;;;;;;;9.20;8.70;;;;;;;;;;4922680;29;20067;-74
2023/12/11 02:05:30;;;;;;;9.05;8.55;;;;;;;;;;4938986;29;20042;-76
2023/12/11 02:07:55;;;;;;;9.40;8.90;;;;;;;;;;4940692;29;20043;-76
2023/12/11 02:10:21;;;;;;;9.65;8.95;;;;;;;;;;4940679;29;20572;-76
2023/12/11 02:12:47;;;;;;;9.13;8.63;;;;;;;;;;4922992;28;20039;-76
2023/12/11 02:15:12;;;;;;;9.93;9.32;;;;;;;;;;4941375;29;20037;-76
2023/12/11 02:17:38;;;;;;;9.00;8.50;;;;;;;;;;4940913;29;20038;-76
2023/12/11 02:20:05;;;;;;;9.20;8.60;;;;;;;;;;4940544;29;20043;-76
2023/12/11 02:22:31;;;;;;;9.50;9.00;;;;;;;;;;4937810;29;20067;-76
2023/12/11 02:25:02;;;;;;;9.05;8.45;;;;;;;;;;4940039;29;20169;-76
2023/12/11 02:27:28;;;;;;;9.10;8.40;;;;;;;;;;4940717;29;20730;-76
2023/12/11 02:29:55;;;;;;;9.27;8.77;;;;;;;;;;4938688;29;20043;-76
2023/12/11 02:32:21;;;;;;;9.15;8.65;;;;;;;;;;4937509;29;20039;-76
2023/12/11 02:34:48;;;;;;;9.70;9.10;;;;;;;;;;4940114;28;20035;-76
2023/12/11 02:37:14;;;;;;;9.73;9.10;;;;;;;;;;4925452;29;20114;-76
2023/12/11 02:39:40;;;;;;;9.48;8.98;;;;;;;;;;4941896;28;20113;-75
2023/12/11 02:42:05;;;;;;;9.25;8.75;;;;;;;;;;4943767;29;21412;-74
2023/12/11 02:44:31;;;;;;;9.40;8.80;;;;;;;;;;4927774;29;20130;-75
2023/12/11 02:46:57;;;;;;;9.50;8.90;;;;;;;;;;4944110;29;20031;-75
2023/12/11 02:49:22;;;;;;;8.93;8.43;;;;;;;;;;4943355;29;20039;-75
2023/12/11 02:51:48;;;;;;;9.43;8.82;;;;;;;;;;4940644;29;20043;-75
2023/12/11 02:54:13;;;;;;;9.20;8.70;;;;;;;;;;4942363;29;20100;-75
2023/12/11 02:56:42;;;;;;;9.27;8.68;;;;;;;;;;4942415;28;20425;-75
2023/12/11 02:59:07;;;;;;;9.25;8.60;;;;;;;;;;4941516;29;20043;-75
2023/12/11 03:01:37;;;;;;;8.75;8.32;;;;;;;;;;4937934;29;20058;-75
2023/12/11 03:04:03;;;;;;;9.45;8.85;;;;;;;;;;4940798;29;20111;-75
2023/12/11 03:06:29;;;;;;;9.73;9.00;;;;;;;;;;4941735;29;20067;-75
2023/12/11 03:08:55;;;;;;;9.20;8.60;;;;;;;;;;4918716;29;20049;-75
2023/12/11 03:11:21;;;;;;;9.25;8.75;;;;;;;;;;4943039;28;20109;-75
2023/12/11 03:13:47;;;;;;;9.82;9.30;;;;;;;;;;4925351;29;20039;-75
2023/12/11 03:16:13;;;;;;;9.02;8.52;;;;;;;;;;4938249;28;20513;-75
2023/12/11 03:18:40;;;;;;;9.43;8.65;;;;;;;;;;4928053;29;20049;-75
2023/12/11 03:21:06;;;;;;;9.77;9.18;;;;;;;;;;4942552;29;20122;-73
2023/12/11 03:23:31;;;;;;;9.77;9.18;;;;;;;;;;4942391;28;20126;-76
2023/12/11 03:25:57;;;;;;;9.73;9.23;;;;;;;;;;4939565;29;20027;-75
2023/12/11 03:28:24;;;;;;;9.90;9.10;;;;;;;;;;4943155;29;20170;-75
2023/12/11 03:30:50;;;;;;;9.65;9.05;;;;;;;;;;4942185;29;20035;-75
2023/12/11 03:33:16;;;;;;;9.32;8.82;;;;;;;;;;4943316;28;20047;-75
2023/12/11 03:35:41;;;;;;;9.40;8.90;;;;;;;;;;4938612;29;20150;-75
2023/12/11 03:38:07;;;;;;;9.20;8.70;;;;;;;;;;4942891;29;20045;-75
2023/12/11 03:40:33;;;;;;;9.30;8.75;;;;;;;;;;4924546;29;20050;-76
2023/12/11 03:42:58;;;;;;;9.50;9.00;;;;;;;;;;4941304;28;20043;-76
2023/12/11 03:45:24;;;;;;;9.88;9.20;;;;;;;;;;4940843;29;20387;-76
2023/12/11 03:47:49;;;;;;;10.02;9.43;;;;;;;;;;4938778;29;20039;-76
2023/12/11 03:50:15;;;;;;;9.57;9.07;;;;;;;;;;4943275;28;20035;-76
2023/12/11 03:52:40;;;;;;;9.20;8.65;;;;;;;;;;4939684;29;21593;-76
2023/12/11 03:55:06;;;;;;;9.77;9.18;;;;;;;;;;4940749;29;20050;-76
2023/12/11 03:57:33;;;;;;;9.50;8.90;;;;;;;;;;4942757;29;20058;-75
2023/12/11 03:59:58;;;;;;;9.63;9.07;;;;;;;;;;4942205;29;20067;-75
2023/12/11 04:02:24;;;;;;;9.43;8.82;;;;;;;;;;4939769;29;20073;-76
2023/12/11 04:04:49;;;;;;;10.18;9.57;;;;;;;;;;4942096;29;20071;-75
2023/12/11 04:07:15;;;;;;;10.20;9.60;;;;;;;;;;4941920;29;20563;-75
2023/12/11 04:09:41;;;;;;;9.57;8.98;;;;;;;;;;4940496;29;20043;-75
2023/12/11 04:12:06;;;;;;;9.73;9.05;;;;;;;;;;4941207;29;20031;-75
2023/12/11 04:14:32;;;;;;;9.90;9.30;;;;;;;;;;4939435;29;20030;-75
2023/12/11 04:16:57;;;;;;;9.60;9.10;;;;;;;;;;4937963;29;20453;-75
2023/12/11 04:19:23;;;;;;;9.73;9.23;;;;;;;;;;4941107;29;20670;-75
2023/12/11 04:21:49;;;;;;;9.68;9.07;;;;;;;;;;4934442;29;20054;-75
2023/12/11 04:24:15;;;;;;;9.95;9.30;;;;;;;;;;4941041;28;20557;-75
2023/12/11 04:26:40;;;;;;;10.68;9.98;;;;;;;;;;4939506;29;20129;-75
2023/12/11 04:29:06;;;;;;;10.40;9.73;;;;;;;;;;4942079;29;20571;-75
2023/12/11 04:31:31;;;;;;;10.25;9.65;;;;;;;;;;4941724;29;20094;-74
2023/12/11 04:33:57;;;;;;;9.68;9.18;;;;;;;;;;4938300;28;20402;-75
2023/12/11 04:36:22;;;;;;;10.32;9.73;;;;;;;;;;4942631;29;20593;-75
2023/12/11 04:38:48;;;;;;;10.20;9.50;;;;;;;;;;4942627;29;20047;-74
2023/12/11 04:41:14;;;;;;;9.70;9.05;;;;;;;;;;4939903;29;20035;-74
2023/12/11 04:43:39;;;;;;;10.32;9.63;;;;;;;;;;4938726;28;20046;-74
2023/12/11 04:46:05;;;;;;;9.30;8.70;;;;;;;;;;4938417;29;20039;-74
2023/12/11 04:48:31;;;;;;;9.65;9.05;;;;;;;;;;4941431;29;20122;-75
2023/12/11 04:50:57;;;;;;;10.15;9.38;;;;;;;;;;4938530;29;20036;-74
2023/12/11 04:53:23;;;;;;;9.65;9.10;;;;;;;;;;4941501;28;20039;-74
2023/12/11 04:55:49;;;;;;;9.20;8.70;;;;;;;;;;4940421;29;20039;-74
2023/12/11 04:58:14;;;;;;;9.73;8.95;;;;;;;;;;4924181;29;20374;-75
2023/12/11 05:00:40;;;;;;;9.20;8.70;;;;;;;;;;4941372;29;20047;-75
2023/12/11 05:03:05;;;;;;;9.13;8.43;;;;;;;;;;4939501;28;20069;-75
2023/12/11 05:05:31;;;;;;;9.75;9.25;;;;;;;;;;4939682;29;20039;-75
2023/12/11 05:07:57;;;;;;;9.10;8.60;;;;;;;;;;4934814;29;20377;-75
2023/12/11 05:10:22;;;;;;;8.43;8.02;;;;;;;;;;4940595;29;20086;-74
2023/12/11 05:12:48;;;;;;;9.30;8.73;;;;;;;;;;4939736;28;20047;-75
2023/12/11 05:15:13;;;;;;;9.20;8.70;;;;;;;;;;4938325;29;20034;-75
2023/12/11 05:17:39;;;;;;;9.32;8.73;;;;;;;;;;4924198;29;20046;-75
2023/12/11 05:20:05;;;;;;;9.65;9.15;;;;;;;;;;4941300;29;20098;-75
2023/12/11 05:22:31;;;;;;;9.38;8.65;;;;;;;;;;4935323;29;20035;-74
2023/12/11 05:24:57;;;;;;;9.50;8.80;;;;;;;;;;4938341;29;20038;-76
2023/12/11 05:27:22;;;;;;;9.35;8.75;;;;;;;;;;4942142;29;20497;-74
2023/12/11 05:29:48;;;;;;;9.07;8.57;;;;;;;;;;4940773;29;20042;-74
2023/12/11 05:32:14;;;;;;;8.57;8.07;;;;;;;;;;4937712;29;20371;-75
2023/12/11 05:34:40;;;;;;;9.07;8.57;;;;;;;;;;4940590;28;20078;-74
2023/12/11 05:37:06;;;;;;;9.10;8.50;;;;;;;;;;4940680;29;20031;-74
2023/12/11 05:39:32;;;;;;;9.73;9.23;;;;;;;;;;4938406;28;20113;-74
2023/12/11 05:41:57;;;;;;;9.43;8.73;;;;;;;;;;4938691;29;20123;-74
2023/12/11 05:44:23;;;;;;;9.68;9.18;;;;;;;;;;4941843;29;20434;-74
2023/12/11 05:46:48;;;;;;;10.23;9.63;;;;;;;;;;4940633;29;20046;-74
2023/12/11 05:49:14;;;;;;;9.60;9.00;;;;;;;;;;4939386;28;20437;-74
2023/12/11 05:51:39;;;;;;;10.32;9.73;;;;;;;;;;4939624;29;20126;-74
2023/12/11 05:54:05;;;;;;;10.27;9.68;;;;;;;;;;4938652;28;20043;-76
2023/12/11 05:56:31;;;;;;;10.18;9.57;;;;;;;;;;4939010;29;20059;-74
2023/12/11 05:58:56;;;;;;;10.25;9.65;;;;;;;;;;4940024;29;20069;-74
2023/12/11 06:01:22;;;;;;;10.18;9.57;;;;;;;;;;4941342;29;20194;-74
2023/12/11 06:03:47;;;;;;;10.30;9.70;;;;;;;;;;4939277;28;20043;-74
2023/12/11 06:06:17;;;;;;;10.88;10.07;;;;;;;;;;4938464;28;20581;-73
2023/12/11 06:08:43;;;;;;;10.20;9.50;;;;;;;;;;4939835;29;20450;-73
2023/12/11 06:11:09;;;;;;;9.30;8.80;;;;;;;;;;4926774;29;20034;-72
2023/12/11 06:13:35;;;;;;;9.35;8.85;;;;;;;;;;4924043;29;20047;-73
2023/12/11 06:16:01;;;;;;;10.50;9.70;;;;;;;;;;4939727;29;20086;-74
2023/12/11 06:18:26;;;;;;;9.30;8.80;;;;;;;;;;4937660;29;20122;-74
2023/12/11 06:20:52;;;;;;;9.80;9.20;;;;;;;;;;4938777;29;20099;-74
2023/12/11 06:23:18;;;;;;;9.90;9.20;;;;;;;;;;4939347;29;20588;-73
2023/12/11 06:25:43;;;;;;;8.80;8.30;;;;;;;;;;4935779;29;20035;-76
2023/12/11 06:28:09;;;;;;;9.65;9.15;;;;;;;;;;4940316;29;20039;-73
2023/12/11 06:30:35;;;;;;;10.02;9.43;;;;;;;;;;4938706;29;20070;-73
2023/12/11 06:33:00;;;;;;;9.50;8.90;;;;;;;;;;4938718;28;20027;-73
2023/12/11 06:35:26;;;;;;;9.10;8.60;;;;;;;;;;4940177;29;21442;-73
2023/12/11 06:37:51;;;;;;;9.75;9.05;;;;;;;;;;4939122;29;20063;-74
2023/12/11 06:40:17;;;;;;;9.50;9.00;;;;;;;;;;4939352;28;20070;-74
2023/12/11 06:42:43;;;;;;;11.00;10.20;;;;;;;;;;4939553;29;20039;-74
2023/12/11 06:45:10;;;;;;;9.63;9.00;;;;;;;;;;4939390;29;20135;-74
2023/12/11 06:47:36;;;;;;;10.50;9.80;;;;;;;;;;4933917;29;20047;-74
2023/12/11 06:50:03;;;;;;;10.57;9.98;;;;;;;;;;4939650;29;20043;-73
2023/12/11 06:52:28;;;;;;;10.57;9.98;;;;;;;;;;4940137;29;20137;-73
2023/12/11 06:54:57;;;;;;;10.13;9.52;;;;;;;;;;4938757;28;20073;-73
2023/12/11 06:57:22;;;;;;;10.32;9.52;;;;;;;;;;4941182;29;20065;-73
2023/12/11 06:59:48;;;;;;;9.98;9.48;;;;;;;;;;4938864;29;20509;-73
2023/12/11 07:02:14;;;;;;;10.07;9.48;;;;;;;;;;4932530;29;20401;-73
2023/12/11 07:04:42;;;;;;;9.57;8.98;;;;;;;;;;4939392;29;20042;-73
2023/12/11 07:07:09;;;;;;;10.15;9.55;;;;;;;;;;4939892;29;20046;-73
2023/12/11 07:09:35;;;;;;;9.65;9.10;;;;;;;;;;4937813;29;20082;-73
2023/12/11 07:12:00;;;;;;;10.82;9.82;;;;;;;;;;4937476;29;20425;-73
2023/12/11 07:14:26;;;;;;;11.15;10.18;;;;;;;;;;4924463;29;20225;-74
2023/12/11 07:16:52;;;;;;;10.95;10.15;;;;;;;;;;4940268;29;20073;-73
2023/12/11 07:19:19;;;;;;;10.07;9.48;;;;;;;;;;4938601;29;20209;-74
2023/12/11 07:21:45;;;;;;;9.52;8.93;;;;;;;;;;4939563;29;20101;-73
2023/12/11 07:24:11;;;;;;;9.82;9.30;;;;;;;;;;4939043;28;20031;-73
2023/12/11 07:26:37;;;;;;;10.13;9.32;;;;;;;;;;4941490;29;20688;-73
2023/12/11 07:29:04;;;;;;;10.02;9.43;;;;;;;;;;4917591;29;20039;-73
2023/12/11 07:31:30;;;;;;;10.45;9.88;;;;;;;;;;4942436;29;20035;-73
2023/12/11 07:33:56;;;;;;;10.32;9.73;;;;;;;;;;4927570;29;20057;-73
2023/12/11 07:36:22;;;;;;;10.20;9.60;;;;;;;;;;4941836;29;20047;-73
2023/12/11 07:38:49;;;;;;;10.15;9.55;;;;;;;;;;4940547;29;20035;-73
2023/12/11 07:41:20;;;;;;;10.60;9.90;;;;;;;;;;4930883;29;20054;-73
2023/12/11 07:43:46;;;;;;;10.75;9.98;;;;;;;;;;4933786;28;20039;-73
2023/12/11 07:46:20;;;;;;;10.10;9.50;;;;;;;;;;4940597;29;20027;-73
2023/12/11 07:48:46;;;;;;;10.77;10.18;;;;;;;;;;4932734;29;20039;-73
2023/12/11 07:51:25;;;;;;;10.55;9.75;;;;;;;;;;4942355;29;20397;-75
2023/12/11 07:53:51;;;;;;;10.88;10.15;;;;;;;;;;4939618;28;20436;-75
2023/12/11 07:56:18;;;;;;;10.13;9.52;;;;;;;;;;4942861;29;20123;-74
2023/12/11 07:58:43;;;;;;;10.52;9.82;;;;;;;;;;4941089;29;20077;-75
2023/12/11 08:01:09;;;;;;;10.27;9.68;;;;;;;;;;4942207;28;20055;-75
2023/12/11 08:03:34;;;;;;;10.57;9.75;;;;;;;;;;4940483;28;20521;-74
2023/12/11 08:06:00;;;;;;;10.48;9.88;;;;;;;;;;4941237;29;20039;-75
2023/12/11 08:08:26;;;;;;;10.85;10.23;;;;;;;;;;4943615;29;20537;-75
2023/12/11 08:10:52;;;;;;;11.43;10.52;;;;;;;;;;4942148;28;20034;-74
2023/12/11 08:13:17;;;;;;;11.38;10.55;;;;;;;;;;4939912;29;21088;-74
2023/12/11 08:15:43;;;;;;;11.13;10.43;;;;;;;;;;4924862;29;20035;-75
2023/12/11 08:18:09;;;;;;;11.45;10.75;;;;;;;;;;4944030;28;20046;-74
2023/12/11 08:20:35;;;;;;;10.00;9.40;;;;;;;;;;4941364;28;20039;-75
2023/12/11 08:23:00;;;;;;;10.80;10.13;;;;;;;;;;4941070;28;20126;-74
2023/12/11 08:25:26;;;;;;;10.73;10.02;;;;;;;;;;4943038;29;20043;-74
2023/12/11 08:27:52;;;;;;;11.07;10.27;;;;;;;;;;4942079;29;20035;-74
2023/12/11 08:30:18;;;;;;;11.35;10.48;;;;;;;;;;4940275;29;20448;-75
2023/12/11 08:32:43;;;;;;;10.90;10.15;;;;;;;;;;4941405;28;20031;-74
2023/12/11 08:35:09;;;;;;;10.52;9.93;;;;;;;;;;4940868;28;20047;-74
2023/12/11 08:37:35;;;;;;;10.65;9.95;;;;;;;;;;4941793;28;20189;-74
2023/12/11 08:40:03;;;;;;;10.35;9.65;;;;;;;;;;4941766;29;20032;-75
2023/12/11 08:42:31;;;;;;;11.07;10.32;;;;;;;;;;4939872;29;20038;-74
2023/12/11 08:44:56;;;;;;;11.10;10.25;;;;;;;;;;4942323;29;20083;-75
2023/12/11 08:47:22;;;;;;;10.90;10.18;;;;;;;;;;4940924;29;20043;-74
2023/12/11 08:49:48;;;;;;;11.50;10.60;;;;;;;;;;4925075;29;20035;-75
2023/12/11 08:52:14;;;;;;;11.35;10.40;;;;;;;;;;4941115;29;20413;-74
2023/12/11 08:54:39;;;;;;;11.80;11.10;;;;;;;;;;4928406;29;20421;-74
2023/12/11 08:57:05;;;;;;;12.40;11.60;;;;;;;;;;4936928;29;20638;-74
2023/12/11 08:59:32;;;;;;;11.82;11.13;;;;;;;;;;4939890;29;20035;-74
2023/12/11 09:01:57;;;;;;;11.05;10.38;;;;;;;;;;4938093;29;20035;-74
2023/12/11 09:04:23;;;;;;;10.73;10.13;;;;;;;;;;4937991;28;20031;-75
2023/12/11 09:06:48;;;;;;;10.55;9.85;;;;;;;;;;4924175;29;20035;-74
2023/12/11 09:09:14;;;;;;;10.77;10.18;;;;;;;;;;4941113;28;20075;-75
2023/12/11 09:11:40;;;;;;;10.93;10.25;;;;;;;;;;4936330;29;20031;-75
2023/12/11 09:14:05;;;;;;;11.30;10.63;;;;;;;;;;4938073;28;20067;-75
2023/12/11 09:16:31;;;;;;;12.18;11.10;;;;;;;;;;4941802;29;20039;-74
2023/12/11 09:18:56;;;;;;;11.60;10.80;;;;;;;;;;4923722;29;20035;-75
2023/12/11 09:21:22;;;;;;;11.70;10.90;;;;;;;;;;4938514;29;21137;-75
2023/12/11 09:23:48;;;;;;;11.95;11.05;;;;;;;;;;4935827;28;20046;-75
2023/12/11 09:26:13;;;;;;;11.98;11.18;;;;;;;;;;4940425;29;20050;-74
2023/12/11 09:28:39;;;;;;;11.73;10.93;;;;;;;;;;4927068;29;20576;-75
2023/12/11 09:31:05;;;;;;;11.93;11.23;;;;;;;;;;4940006;28;20098;-74
2023/12/11 09:33:31;;;;;;;11.00;10.40;;;;;;;;;;4940253;28;20035;-74
2023/12/11 09:35:57;;;;;;;11.52;10.93;;;;;;;;;;4938559;29;20502;-74
2023/12/11 09:38:23;;;;;;;11.20;10.50;;;;;;;;;;4922255;29;20041;-74
2023/12/11 09:40:48;;;;;;;10.80;10.10;;;;;;;;;;4937185;29;20035;-75
2023/12/11 09:43:16;;;;;;;11.35;10.65;;;;;;;;;;4923696;29;20067;-74
2023/12/11 09:45:43;;;;;;;11.00;10.20;;;;;;;;;;4942439;28;20130;-74
2023/12/11 09:48:09;;;;;;;10.95;10.32;;;;;;;;;;4938518;28;20114;-74
2023/12/11 09:50:37;;;;;;;11.10;10.40;;;;;;;;;;4939003;29;20113;-74
2023/12/11 09:53:03;;;;;;;11.15;10.52;;;;;;;;;;4936537;28;20042;-75
2023/12/11 09:55:29;;;;;;;11.00;10.00;;;;;;;;;;4939456;29;20035;-74
2023/12/11 09:57:55;;;;;;;10.80;10.20;;;;;;;;;;4936386;29;20034;-74
2023/12/11 10:00:21;;;;;;;11.15;10.45;;;;;;;;;;4934112;29;22436;-74
2023/12/11 10:02:50;;;;;;;10.85;10.02;;;;;;;;;;4939369;28;20723;-74
2023/12/11 10:05:24;;;;;;;11.38;10.68;;;;;;;;;;4913472;28;20726;-74
2023/12/11 10:07:50;;;;;;;10.98;10.10;;;;;;;;;;4936628;29;20031;-75
2023/12/11 10:10:19;;;;;;;10.73;10.13;;;;;;;;;;4934384;29;20038;-74
2023/12/11 10:12:55;;;;;;;10.87;10.17;;;;;;;;;;4800743;28;10000929;-75
2023/12/11 10:15:24;;;;;;;11.05;10.27;;;;;;;;;;4426124;29;10000791;-74
2023/12/11 10:18:09;;;;;;;11.00;10.30;;;;;;;;;;4938383;29;20054;-74
2023/12/11 10:20:37;;;;;;;11.40;10.50;;;;;;;;;;4933417;29;20035;-74
2023/12/11 10:23:21;;;;;;;11.18;10.40;;;;;;;;;;4935540;28;20066;-74
2023/12/11 10:25:50;;;;;;;10.85;10.10;;;;;;;;;;4932303;29;20043;-74
2023/12/11 10:28:18;;;;;;;10.23;9.63;;;;;;;;;;4932825;29;20031;-74
2023/12/11 10:30:59;;;;;;;10.75;10.02;;;;;;;;;;4933970;29;20067;-75
2023/12/11 10:33:27;;;;;;;11.50;10.70;;;;;;;;;;4936912;28;20027;-75
2023/12/11 10:36:07;;;;;;;11.63;10.73;;;;;;;;;;4937984;29;20031;-75
2023/12/11 10:38:34;;;;;;;12.00;11.30;;;;;;;;;;4931565;29;20414;-75
2023/12/11 10:40:59;;;;;;;12.02;10.90;;;;;;;;;;4937323;29;20043;-74
2023/12/11 10:43:25;;;;;;;11.77;10.80;;;;;;;;;;4932615;28;20662;-75
2023/12/11 10:45:51;;;;;;;12.10;11.38;;;;;;;;;;4933940;29;20170;-75
2023/12/11 10:48:16;;;;;;;11.13;10.43;;;;;;;;;;4920505;28;20051;-75
2023/12/11 10:50:42;;;;;;;11.68;10.88;;;;;;;;;;4930248;29;20910;-75
2023/12/11 10:53:08;;;;;;;11.70;10.70;;;;;;;;;;4922172;28;21477;-75
2023/12/11 10:55:36;;;;;;;11.75;10.93;;;;;;;;;;4932600;29;20035;-74
2023/12/11 10:58:05;;;;;;;11.73;10.93;;;;;;;;;;4935147;29;20046;-75
2023/12/11 11:00:32;;;;;;;12.30;11.25;;;;;;;;;;4941908;28;20047;-75
2023/12/11 11:02:58;;;;;;;11.70;10.75;;;;;;;;;;4932978;29;20054;-75
2023/12/11 11:05:28;;;;;;;11.20;10.57;;;;;;;;;;4938337;29;20350;-75
2023/12/11 11:08:06;;;;;;;11.32;10.63;;;;;;;;;;4926210;29;20031;-75
2023/12/11 11:10:42;;;;;;;10.38;9.77;;;;;;;;;;4935301;29;20039;-75
2023/12/11 11:13:24;;;;;;;10.52;9.88;;;;;;;;;;4939296;28;20102;-75
2023/12/11 11:15:53;;;;;;;11.90;10.90;;;;;;;;;;4934681;29;20461;-75
2023/12/11 11:18:20;;;;;;;10.75;10.05;;;;;;;;;;4934728;29;20756;-75
2023/12/11 11:21:10;;;;;;;11.65;10.73;;;;;;;;;;4939455;29;20062;-75
2023/12/11 11:23:42;;;;;;;10.50;9.80;;;;;;;;;;4938362;28;20492;-75
2023/12/11 11:26:29;;;;;;;11.05;10.30;;;;;;;;;;4929560;29;20114;-75
2023/12/11 11:28:55;;;;;;;11.35;10.63;;;;;;;;;;4935162;29;20027;-75
2023/12/11 11:31:50;;;;;;;11.20;10.30;;;;;;;;;;4936438;28;20102;-75
2023/12/11 11:34:43;;;;;;;11.70;11.00;;;;;;;;;;4934538;28;20508;-75
2023/12/11 11:37:20;;;;;;;11.80;11.10;;;;;;;;;;4934532;29;20030;-75
2023/12/11 11:44:00;;;;;;;11.75;10.98;;;;;;;;;;4937114;29;20645;-75
2023/12/11 11:46:27;;;;;;;11.48;10.68;;;;;;;;;;4938826;28;20532;-75
2023/12/11 11:48:53;;;;;;;11.93;11.15;;;;;;;;;;4935634;29;20039;-75
2023/12/11 11:51:22;;;;;;;11.40;10.70;;;;;;;;;;4937826;29;20085;-74
2023/12/11 11:53:55;;;;;;;11.25;10.45;;;;;;;;;;4930473;29;20040;-74
2023/12/11 11:56:21;;;;;;;11.43;10.63;;;;;;;;;;4936571;28;20051;-74
2023/12/11 11:58:46;;;;;;;11.15;10.45;;;;;;;;;;4937147;29;20652;-74
2023/12/11 12:01:12;;;;;;;11.20;10.45;;;;;;;;;;4933234;28;20054;-74
2023/12/11 12:03:44;;;;;;;10.98;10.30;;;;;;;;;;4080749;28;10000324;-74
2023/12/11 12:06:10;;;;;;;12.52;10.57;;;;;;;;;;4931055;28;20657;-74
2023/12/11 12:08:41;;;;;;;10.88;10.13;;;;;;;;;;4924151;29;20498;-74
2023/12/11 12:11:07;;;;;;;11.10;10.20;;;;;;;;;;4937922;28;20070;-74
2023/12/11 12:13:33;;;;;;;11.07;10.20;;;;;;;;;;4914987;29;20062;-74
2023/12/11 12:15:59;;;;;;;10.85;9.95;;;;;;;;;;4940040;29;20296;-74
2023/12/11 12:18:25;;;;;;;11.55;10.75;;;;;;;;;;4931369;29;20051;-74
2023/12/11 12:21:02;;;;;;;11.07;10.38;;;;;;;;;;4935958;29;20049;-74
2023/12/11 12:23:27;;;;;;;11.57;10.77;;;;;;;;;;4932990;29;20047;-74
2023/12/11 12:25:57;;;;;;;12.23;11.23;;;;;;;;;;4933030;29;20038;-74
2023/12/11 12:28:23;;;;;;;12.52;11.10;;;;;;;;;;4918352;28;20050;-74
2023/12/11 12:30:49;;;;;;;11.50;10.70;;;;;;;;;;4931851;29;20031;-74
2023/12/11 12:33:18;;;;;;;12.23;11.30;;;;;;;;;;4932871;28;20086;-74
2023/12/11 12:35:45;;;;;;;11.52;10.60;;;;;;;;;;4938310;29;20030;-74
2023/12/11 12:38:11;;;;;;;12.57;11.68;;;;;;;;;;4933196;29;20035;-74
2023/12/11 12:40:37;;;;;;;12.23;11.20;;;;;;;;;;4932696;28;20571;-74
2023/12/11 12:43:13;;;;;;;13.00;11.68;;;;;;;;;;4917505;29;20040;-74
2023/12/11 12:45:39;;;;;;;12.27;11.10;;;;;;;;;;4936443;29;20035;-75
2023/12/11 12:48:08;;;;;;;13.55;10.90;;;;;;;;;;4917855;28;20129;-75
2023/12/11 12:50:34;;;;;;;12.80;11.65;;;;;;;;;;4935026;28;20042;-75
2023/12/11 12:53:05;;;;;;;13.45;11.52;;;;;;;;;;4933391;29;20794;-75
2023/12/11 12:55:31;;;;;;;12.68;11.50;;;;;;;;;;4931743;29;20136;-75
2023/12/11 12:57:57;;;;;;;12.35;11.25;;;;;;;;;;4934245;29;20043;-76
2023/12/11 13:00:23;;;;;;;11.65;10.75;;;;;;;;;;4935472;29;20648;-76
2023/12/11 13:02:49;;;;;;;12.73;11.82;;;;;;;;;;4929655;29;20102;-75
2023/12/11 13:05:15;;;;;;;12.43;11.30;;;;;;;;;;4937404;28;20035;-76
2023/12/11 13:07:41;;;;;;;12.55;11.35;;;;;;;;;;4935267;29;20108;-75
2023/12/11 13:10:11;;;;;;;12.07;11.18;;;;;;;;;;4934586;29;20042;-76
2023/12/11 13:12:37;;;;;;;12.13;11.10;;;;;;;;;;4927538;29;20031;-76
2023/12/11 13:15:06;;;;;;;11.48;10.68;;;;;;;;;;4914850;29;20591;-76
2023/12/11 13:17:33;;;;;;;12.18;11.00;;;;;;;;;;4933119;29;20031;-75
2023/12/11 13:19:59;;;;;;;12.05;11.15;;;;;;;;;;4911212;29;20035;-75
2023/12/11 13:22:25;;;;;;;11.88;10.88;;;;;;;;;;4933204;28;20043;-75
2023/12/11 13:24:51;;;;;;;11.60;10.63;;;;;;;;;;4937068;28;20675;-75
2023/12/11 13:27:18;;;;;;;12.27;11.38;;;;;;;;;;3212749;28;10000890;-75
2023/12/11 13:29:44;;;;;;;11.75;10.85;;;;;;;;;;4918041;29;20035;-75
2023/12/11 13:32:12;;;;;;;11.35;10.55;;;;;;;;;;4918874;29;20493;-75
2023/12/11 13:34:38;;;;;;;11.73;10.80;;;;;;;;;;4933335;28;20441;-75
2023/12/11 13:37:10;;;;;;;12.65;10.70;;;;;;;;;;4264499;28;10001258;-75
2023/12/11 13:39:35;;;;;;;11.48;10.52;;;;;;;;;;4932295;29;20245;-75
2023/12/11 13:42:01;;;;;;;11.75;10.70;;;;;;;;;;4934209;29;20070;-75
2023/12/11 13:44:27;;;;;;;11.52;10.73;;;;;;;;;;4931941;29;20047;-75
2023/12/11 13:46:52;;;;;;;12.40;11.43;;;;;;;;;;4076176;28;10001007;-75
2023/12/11 13:49:18;;;;;;;12.48;11.50;;;;;;;;;;4931141;29;20079;-75
2023/12/11 13:51:44;;;;;;;11.20;10.25;;;;;;;;;;4938478;29;20480;-75
2023/12/11 13:54:09;;;;;;;11.80;10.70;;;;;;;;;;4944269;29;20122;-74
2023/12/11 13:56:35;;;;;;;13.82;12.52;;;;;;;;;;4947113;29;20035;-74
2023/12/11 13:59:00;;;;;;;11.73;10.82;;;;;;;;;;4948560;29;20050;-75
2023/12/11 14:01:26;;;;;;;12.13;11.10;;;;;;;;;;4938321;29;20461;-75
2023/12/11 14:03:52;;;;;;;11.27;10.57;;;;;;;;;;4936424;28;20157;-75
2023/12/11 14:06:17;;;;;;;11.48;10.57;;;;;;;;;;4935552;29;20035;-75
2023/12/11 14:08:43;;;;;;;12.10;11.02;;;;;;;;;;4924726;29;20498;-75
2023/12/11 14:11:09;;;;;;;12.43;11.32;;;;;;;;;;4932992;28;20170;-75
2023/12/11 14:13:34;;;;;;;11.82;10.85;;;;;;;;;;4914926;29;20039;-75
2023/12/11 14:16:00;;;;;;;12.45;11.10;;;;;;;;;;4937132;29;20037;-75
2023/12/11 14:18:29;;;;;;;12.05;11.02;;;;;;;;;;4934573;28;20047;-75
2023/12/11 14:20:55;;;;;;;11.70;10.80;;;;;;;;;;4939380;28;20067;-75
2023/12/11 14:23:21;;;;;;;13.25;11.35;;;;;;;;;;4927809;29;20544;-75
2023/12/11 14:25:48;;;;;;;11.98;10.93;;;;;;;;;;4938385;29;20035;-75
2023/12/11 14:28:13;;;;;;;12.68;11.30;;;;;;;;;;4935589;29;20528;-75
2023/12/11 14:30:39;;;;;;;11.65;10.40;;;;;;;;;;4936870;29;20035;-75